• Join FlightAware (Why Join?)
  • Login
  • US Flag 
05:34AM EDT


 

Airport Tracker/Info


-or-


 

Live Flight TrackerFlight Track Log ✈ AWE3287 ✈ 23-Aug-2013 ✈ KMHT - KPHL

Flight Track Log - Related Links

Times and Time Zones

All times are in EDT time to prevent confusion due to time zone crossing. See the AWE3287 flight status page for this flight to view local times or setup timezone preferences in your user account.

Time Position Orientation Groundspeed Altitude Reporting Facility
EDT Latitude Longitude Course Direction KTS MPH feet Rate Location/Type
11:38AM 42.9500 -71.4333 270° West 154 177 900  Level KA90
11:40AM 43.0092 -71.4833 328° Northwest 218 251 4,400 2,700 Climbing Boston Center
11:41AM 42.9333 -71.6588 270° West  Level FlightAware Approximate
11:41AM 43.0431 -71.5594 301° West 219 252 7,600  Level Boston Center
11:42AM 42.9333 -71.7346 270° West  Level FlightAware Approximate
11:42AM 43.0647 -71.6528 288° West 244 281 10,800  Level Boston Center
11:43AM 42.9333 -71.8105 270° West  Level FlightAware Approximate
11:43AM 43.0592 -71.7694 266° West 291 335 13,400  Level Boston Center
11:44AM 42.9500 -71.9262 270° West  Level FlightAware Approximate
11:44AM 43.0556 -71.8889 268° West 317 365 15,900  Level Boston Center
11:45AM 43.0519 -72.0167 268° West 336 387 18,900 2,760 Climbing Boston Center
11:46AM 43.0461 -72.1361 266° West 336 387 21,400 2,520 Climbing Boston Center
11:47AM 43.0422 -72.2611 268° West 326 375 24,100 2,040 Climbing Boston Center
11:48AM 43.0403 -72.3833 269° West 326 375 25,600 900 Climbing Boston Center
11:49AM 43.0403 -72.5025 270° West 331 381 26,000 180 Climbing Boston Center
11:50AM 43.0317 -72.6275 265° West 325 374 26,000  Level Boston Center
11:51AM 43.0211 -72.7553 264° West 337 388 26,000  Level Boston Center
11:52AM 43.0164 -72.8744 267° West 331 381 26,000  Level Boston Center
11:53AM 43.0119 -72.9739 267° West 331 381 26,000  Level Boston Center
11:54AM 43.0047 -73.1214 266° West 331 381 26,000  Level Boston Center
11:55AM 43.0000 -73.2350 267° West 331 381 26,000  Level Boston Center
11:56AM 42.9864 -73.3569 261° West 331 381 26,000  Level Boston Center
11:57AM 42.9292 -73.4694 235° Southwest 324 373 26,000  Level Boston Center
11:58AM 42.8742 -73.5706 233° Southwest 324 373 26,000  Level Boston Center
11:59AM 42.8275 -73.6575 234° Southwest 329 379 26,000  Level Boston Center
12:00PM 42.7636 -73.7722 233° Southwest 341 392 26,000  Level Boston Center
12:01PM 42.7122 -73.8756 236° Southwest 341 392 26,000  Level Boston Center
12:02PM 42.6608 -73.9817 237° Southwest 336 387 26,000  Level Boston Center
12:03PM 42.6094 -74.0819 235° Southwest 330 380 26,000  Level Boston Center
12:04PM 42.5664 -74.1711 237° Southwest 330 380 26,000  Level Boston Center
12:05PM 42.5083 -74.2878 236° Southwest 330 380 26,000  Level Boston Center
12:06PM 42.4631 -74.3819 237° Southwest 330 380 26,000  Level Boston Center
12:07PM 42.4067 -74.4983 237° Southwest 333 383 26,000  Level Boston Center
12:08PM 42.3486 -74.5919 230° Southwest 338 389 26,000  Level Boston Center
12:10PM 42.2375 -74.7511 227° Southwest 341 392 26,000 -480 Level New York Center
12:11PM 42.1719 -74.8422 226° Southwest 341 392 24,800 -1,500 Descending New York Center
12:12PM 42.1086 -74.9333 227° Southwest 341 392 23,000 -1,800 Descending New York Center
12:13PM 42.0428 -75.0242 226° Southwest 341 392 21,200 -1,800 Descending New York Center
12:14PM 41.9814 -75.1122 227° Southwest 336 387 19,500 -1,140 Descending New York Center
12:15PM 41.9039 -75.1850 215° Southwest 336 387 19,000 -300 Descending New York Center
12:16PM 41.8158 -75.2572 211° Southwest 336 387 19,000 -360 Level New York Center
12:17PM 41.7383 -75.3186 211° Southwest 343 395 18,300 -1,200 Descending New York Center
12:18PM 41.6589 -75.3825 211° Southwest 343 395 16,600 -1,740 Descending New York Center
12:19PM 41.5881 -75.4386 211° Southwest 343 395 14,900 -1,680 Descending New York Center
12:20PM 41.5128 -75.5000 211° Southwest 331 381 13,300 -1,500 Descending New York Center
12:21PM 41.4286 -75.5689 212° Southwest 331 381 12,000 -660 Descending New York Center
12:22PM 41.3686 -75.6142 210° Southwest 326 375 12,000  Level New York Center
12:23PM 41.2844 -75.6800 210° Southwest 326 375 12,000  Level New York Center
12:24PM 41.1883 -75.6922 185° South 315 362 12,000  Level New York Center
12:25PM 41.1072 -75.6892 178° South 324 373 12,000  Level New York Center
12:26PM 41.0175 -75.6881 179° South 330 380 12,000  Level New York Center
12:27PM 40.9239 -75.6869 179° South 330 380 12,000  Level New York Center
12:28PM 40.8364 -75.6861 180° South 325 374 12,000  Level New York Center
12:29PM 40.7386 -75.6844 179° South 325 374 12,000  Level New York Center
12:30PM 40.6489 -75.6836 180° South 325 374 12,000  Level New York Center
12:31PM 40.5708 -75.6561 165° South 326 375 12,000 -60 Level New York Center
12:32PM 40.5106 -75.5508 127° Southeast 304 350 11,900 -960 Descending New York Center
12:33PM 40.4625 -75.4547 123° Southeast 312 359 10,100 -960 Descending New York Center
12:34PM 40.3875 -75.3978 150° Southeast 312 359 10,000 -660 Descending New York Center
12:35PM 40.3164 -75.4011 182° South 290 334 8,800 -1,260 Descending New York Center
12:36PM 40.2392 -75.4069 183° South 290 334 7,500 -1,200 Descending New York Center
12:37PM 40.1675 -75.3722 160° South 276 318 6,500 -780 Descending New York Center
12:38PM 40.1122 -75.2925 132° Southeast 260 299 6,000 -300 Descending New York Center
12:38PM 40.0833 -75.2333 123° Southeast 260 299 6,000  Level Philadelphia TRACON
12:39PM 40.0167 -75.2000 159° South 226 260 6,000  Level Philadelphia TRACON
12:40PM 39.9833 -75.1500 131° Southeast 206 237 6,000  Level Philadelphia TRACON
12:41PM 40.0000 -75.0833 72° East 185 213 6,000 -600 Level Philadelphia TRACON
12:42PM 40.0000 -75.0167 90° East 192 221 4,900 -1,080 Descending Philadelphia TRACON
12:43PM 39.9833 -74.9667 113° Southeast 200 230 3,900 -960 Descending Philadelphia TRACON
12:44PM 39.9333 -74.9833 194° South 194 223 3,000 -540 Descending Philadelphia TRACON
12:45PM 39.9167 -75.0333 247° West 179 206 2,900 -540 Descending Philadelphia TRACON
12:46PM 39.9000 -75.1000 252° West 180 207 2,000 -900 Descending Philadelphia TRACON
12:47PM 39.8833 -75.1500 247° West 131 151 1,200 -780 Descending Philadelphia TRACON
12:48PM 39.8833 -75.2000 270° West 136 157 400 -780 Descending Philadelphia TRACON